createdAt,value
2022-09-02T00:02:03.062Z,99745.84
2022-09-02T00:12:09.664Z,99742.56
2022-09-02T00:22:15.983Z,99729.59
2022-09-02T00:32:22.285Z,99734.41
2022-09-02T00:42:28.735Z,99726.87
2022-09-02T00:52:38.920Z,99726.72
2022-09-02T01:02:49.397Z,99721.50
2022-09-02T01:12:57.862Z,99727.44
2022-09-02T01:23:04.248Z,99733.34
2022-09-02T01:33:10.894Z,99730.28
2022-09-02T01:43:21.364Z,99730.84
2022-09-02T01:53:28.834Z,99724.25
2022-09-02T02:03:37.025Z,99719.03
2022-09-02T02:13:44.454Z,99723.84
2022-09-02T02:23:50.968Z,99717.19
2022-09-02T02:33:57.273Z,99723.31
2022-09-02T02:44:04.190Z,99711.31
2022-09-02T02:54:11.561Z,99721.34
2022-09-02T03:04:17.961Z,99708.25
2022-09-02T03:14:24.270Z,99718.78
2022-09-02T03:24:30.604Z,99696.53
2022-09-02T03:34:36.978Z,99697.22
2022-09-02T03:44:43.298Z,99692.69
2022-09-02T03:54:50.167Z,99693.28
2022-09-02T04:04:56.533Z,99703.31
2022-09-02T04:15:04.958Z,99700.69
2022-09-02T04:25:11.609Z,99697.94
2022-09-02T04:35:18.152Z,99695.22
2022-09-02T04:45:29.765Z,99696.09
2022-09-02T04:55:36.733Z,99684.66
2022-09-02T05:05:43.050Z,99636.31
2022-09-02T05:15:49.378Z,99626.38
2022-09-02T05:25:55.753Z,99612.31
2022-09-02T05:36:03.983Z,99617.03
2022-09-02T05:46:12.389Z,99582.34
2022-09-02T05:56:18.795Z,99606.97
2022-09-02T06:06:26.468Z,99599.00
2022-09-02T06:16:33.102Z,99600.22
2022-09-02T06:26:40.572Z,99590.19
2022-09-02T06:36:48.935Z,99641.16
2022-09-02T06:46:59.958Z,99651.72
2022-09-02T06:57:06.403Z,99617.81
2022-09-02T07:07:13.602Z,99640.06
2022-09-02T07:17:23.054Z,99614.56
2022-09-02T07:27:29.401Z,99638.28
2022-09-02T07:37:38.512Z,99625.84
2022-09-02T07:47:44.875Z,99633.56
2022-09-02T07:57:52.675Z,99595.31
2022-09-02T08:07:59.003Z,99612.31
2022-09-02T08:18:06.288Z,99582.87
2022-09-02T08:28:12.719Z,99581.09
2022-09-02T08:38:19.121Z,99572.75
2022-09-02T08:48:34.342Z,99587.41
2022-09-02T08:58:44.493Z,99516.69
2022-09-02T09:09:00.973Z,99560.00
2022-09-02T09:19:37.113Z,99580.94
2022-09-02T09:29:43.524Z,99567.44
2022-09-02T09:39:50.905Z,99539.44
2022-09-02T09:50:26.365Z,99573.50
2022-09-02T10:00:34.135Z,99560.31
2022-09-02T10:10:40.706Z,99588.31
2022-09-02T10:21:13.958Z,99560.00
2022-09-02T10:31:40.007Z,99546.97
2022-09-02T10:41:49.602Z,99523.75
2022-09-02T10:52:09.330Z,99466.38
2022-09-02T11:02:39.453Z,99411.88
2022-09-02T11:12:50.058Z,99397.41
2022-09-02T11:23:18.005Z,99358.41
2022-09-02T11:33:43.609Z,99359.56
2022-09-02T11:44:20.749Z,99347.16
2022-09-02T11:54:28.985Z,99393.19
2022-09-02T12:05:04.335Z,99394.62
